Time;durP1;ratioP1;P1;durP2;ratioP2;P2;SDS_P1;SDS_P2;PMS_P1;PMS_P2;Temp;Humidity;BMP_temperature;BMP_pressure;BME280_temperature;BME280_humidity;BME280_pressure;Samples;Min_cycle;Max_cycle;Signal;HPM_P1;HPM_P2
2020/12/19 08:08:36;;;;;;;;;;;18.20;49.40;;;;;;5098543;27;19922;-65
2020/12/19 08:11:03;;;;;;;;;;;18.30;49.30;;;;;;5096757;28;20396;-67
2020/12/19 08:13:29;;;;;;;;;;;18.60;48.30;;;;;;5098861;28;20200;-67
2020/12/19 08:15:56;;;;;;;;;;;19.10;47.10;;;;;;5097137;28;19924;-69
2020/12/19 08:18:23;;;;;;;;;;;19.50;45.70;;;;;;5095501;28;20003;-67
2020/12/19 08:20:50;;;;;;;;;;;19.90;45.00;;;;;;5097448;28;19935;-67
2020/12/19 08:23:17;;;;;;;;;;;20.20;44.30;;;;;;5096472;28;20300;-67
2020/12/19 08:25:49;;;;;;;;;;;20.50;43.90;;;;;;5096839;28;20380;-67
2020/12/19 08:28:20;;;;;;;;;;;20.80;43.30;;;;;;5093211;28;19930;-68
2020/12/19 08:30:51;;;;;;;;;;;21.00;42.50;;;;;;5093018;28;20393;-68
2020/12/19 08:33:18;;;;;;;;;;;21.20;42.50;;;;;;5097095;28;19924;-68
2020/12/19 08:35:45;;;;;;;;;;;21.20;42.20;;;;;;5098361;28;19946;-68
2020/12/19 08:38:26;;;;;;;;;;;21.40;42.00;;;;;;5092158;28;19978;-67
2020/12/19 08:40:55;;;;;;;;;;;21.50;41.60;;;;;;5107562;28;20567;-69
2020/12/19 08:43:30;;;;;;;;;;;21.50;41.50;;;;;;5091310;28;20343;-68
2020/12/19 08:46:06;;;;;;;;;;;21.70;41.30;;;;;;5099457;28;20411;-70
2020/12/19 08:48:32;;;;;;;;;;;21.70;41.20;;;;;;5086595;28;19924;-69
2020/12/19 08:51:06;;;;;;;;;;;21.80;41.10;;;;;;5093086;28;19989;-67
2020/12/19 08:53:32;;;;;;;;;;;21.80;41.00;;;;;;5086922;28;19925;-68
2020/12/19 08:56:14;;;;;;;;;;;21.90;40.80;;;;;;5084252;28;20351;-69
2020/12/19 08:58:41;;;;;;;;;;;21.90;40.80;;;;;;5083957;28;19933;-69
2020/12/19 09:01:14;;;;;;;;;;;22.00;40.60;;;;;;5075710;28;19931;-68
2020/12/19 09:03:41;;;;;;;;;;;21.90;40.70;;;;;;5083552;28;19970;-68
2020/12/19 09:06:08;;;;;;;;;;;22.00;40.70;;;;;;5084634;28;19931;-67
2020/12/19 09:08:42;;;;;;;;;;;22.00;40.80;;;;;;5066522;28;19924;-68
2020/12/19 09:11:20;;;;;;;;;;;21.90;41.10;;;;;;5066597;28;19931;-69
2020/12/19 09:13:47;;;;;;;;;;;21.80;41.30;;;;;;5066344;28;19932;-69
2020/12/19 09:16:14;;;;;;;;;;;21.90;41.50;;;;;;5089396;28;19924;-68
2020/12/19 09:18:40;;;;;;;;;;;22.00;41.60;;;;;;5079095;28;19932;-71
2020/12/19 09:21:07;;;;;;;;;;;22.00;41.60;;;;;;5073190;28;20015;-67
2020/12/19 09:23:34;;;;;;;;;;;22.10;41.70;;;;;;5073085;28;19950;-67
2020/12/19 09:26:02;;;;;;;;;;;22.20;41.60;;;;;;5073369;28;19928;-71
2020/12/19 09:28:29;;;;;;;;;;;22.20;41.70;;;;;;5073101;28;19933;-71
2020/12/19 09:30:56;;;;;;;;;;;22.20;41.80;;;;;;5073036;28;19947;-69
2020/12/19 09:33:22;;;;;;;;;;;22.20;41.80;;;;;;5073422;28;20293;-66
2020/12/19 09:35:49;;;;;;;;;;;22.30;41.90;;;;;;5073081;28;19929;-67
2020/12/19 09:38:16;;;;;;;;;;;22.30;42.00;;;;;;5071626;28;19924;-68
2020/12/19 09:40:42;;;;;;;;;;;22.30;41.90;;;;;;5105316;28;19955;-70
2020/12/19 09:43:09;;;;;;;;;;;22.30;42.20;;;;;;5072836;28;19951;-67
2020/12/19 09:45:35;;;;;;;;;;;22.30;42.20;;;;;;5072142;28;19931;-67
2020/12/19 09:48:02;;;;;;;;;;;22.40;42.30;;;;;;5089534;28;19924;-70
2020/12/19 09:50:29;;;;;;;;;;;22.40;42.30;;;;;;5075894;28;19928;-70
2020/12/19 09:52:55;;;;;;;;;;;22.40;42.20;;;;;;5072675;28;19978;-71
2020/12/19 09:55:21;;;;;;;;;;;22.50;42.30;;;;;;5070926;28;19924;-67
2020/12/19 09:57:48;;;;;;;;;;;22.50;42.30;;;;;;5072522;28;19924;-68
2020/12/19 10:00:16;;;;;;;;;;;22.50;42.20;;;;;;5072914;28;20125;-69
2020/12/19 10:02:42;;;;;;;;;;;22.50;42.50;;;;;;5078166;28;19931;-72
2020/12/19 10:05:09;;;;;;;;;;;22.50;42.50;;;;;;5072254;28;20412;-71
2020/12/19 10:07:36;;;;;;;;;;;22.50;42.40;;;;;;5071957;28;19924;-71
2020/12/19 10:10:03;;;;;;;;;;;22.50;42.40;;;;;;5072148;28;20475;-70
2020/12/19 10:12:30;;;;;;;;;;;22.50;42.60;;;;;;5072493;28;19924;-69
2020/12/19 10:14:56;;;;;;;;;;;22.50;42.60;;;;;;5070721;28;19924;-71
2020/12/19 10:17:22;;;;;;;;;;;22.50;42.60;;;;;;5072029;28;19970;-69
2020/12/19 10:19:49;;;;;;;;;;;22.50;42.50;;;;;;5071777;28;19924;-69
2020/12/19 10:22:16;;;;;;;;;;;22.60;42.60;;;;;;5071797;28;19979;-70
2020/12/19 10:24:42;;;;;;;;;;;22.60;42.60;;;;;;5072123;28;20346;-68
2020/12/19 10:27:09;;;;;;;;;;;22.60;42.90;;;;;;5078891;28;19920;-67
2020/12/19 10:29:35;;;;;;;;;;;22.60;42.70;;;;;;5092484;28;19920;-70
2020/12/19 10:32:05;;;;;;;;;;;22.60;42.70;;;;;;5091386;28;19924;-70
2020/12/19 10:34:36;;;;;;;;;;;22.60;42.50;;;;;;5091762;28;19924;-73
2020/12/19 10:37:03;;;;;;;;;;;22.60;42.30;;;;;;5091777;28;20285;-73
2020/12/19 10:39:29;;;;;;;;;;;22.60;42.50;;;;;;5091552;28;19931;-71
2020/12/19 10:41:56;;;;;;;;;;;22.60;42.50;;;;;;5091473;28;19924;-69
2020/12/19 10:44:22;;;;;;;;;;;22.40;42.50;;;;;;5091388;28;19982;-69
2020/12/19 10:46:48;;;;;;;;;;;22.50;42.70;;;;;;5083941;28;19924;-71
2020/12/19 10:49:15;;;;;;;;;;;22.50;42.90;;;;;;5070102;28;19924;-67
2020/12/19 10:51:42;;;;;;;;;;;22.50;43.00;;;;;;5069887;28;20449;-72
2020/12/19 10:54:08;;;;;;;;;;;22.50;43.00;;;;;;5071125;28;19928;-70
2020/12/19 10:56:34;;;;;;;;;;;22.60;43.00;;;;;;5071464;28;19925;-70
2020/12/19 10:59:01;;;;;;;;;;;22.60;43.00;;;;;;5071068;28;19924;-73
2020/12/19 11:01:27;;;;;;;;;;;22.70;43.20;;;;;;5071405;28;20324;-75
2020/12/19 11:03:53;;;;;;;;;;;22.70;43.20;;;;;;5070831;28;19932;-73
2020/12/19 11:06:24;;;;;;;;;;;22.70;43.10;;;;;;5071050;28;19944;-67
2020/12/19 11:08:50;;;;;;;;;;;22.70;43.30;;;;;;5070785;28;19932;-67
2020/12/19 11:11:25;;;;;;;;;;;22.70;43.40;;;;;;5070773;28;19928;-71
2020/12/19 11:13:52;;;;;;;;;;;22.80;43.20;;;;;;5070832;28;20038;-72
2020/12/19 11:16:24;;;;;;;;;;;22.80;43.10;;;;;;5067579;28;19928;-69
2020/12/19 11:18:51;;;;;;;;;;;22.80;43.00;;;;;;5067144;28;20374;-71
2020/12/19 11:21:18;;;;;;;;;;;22.90;42.90;;;;;;5068542;28;19932;-69
2020/12/19 11:23:45;;;;;;;;;;;22.90;42.80;;;;;;5068921;28;19924;-69
2020/12/19 11:26:12;;;;;;;;;;;23.00;42.70;;;;;;5068629;28;19931;-71
2020/12/19 11:28:38;;;;;;;;;;;23.00;42.70;;;;;;5069159;28;19982;-72
2020/12/19 11:31:06;;;;;;;;;;;23.00;42.60;;;;;;5069700;28;20542;-70
2020/12/19 11:33:33;;;;;;;;;;;23.00;42.50;;;;;;5069830;28;19924;-68
2020/12/19 11:36:00;;;;;;;;;;;23.00;42.50;;;;;;5070110;28;19931;-69
2020/12/19 11:38:26;;;;;;;;;;;23.10;42.20;;;;;;5070434;28;19924;-70
2020/12/19 11:40:53;;;;;;;;;;;23.10;42.20;;;;;;5070626;28;19954;-73
2020/12/19 11:43:19;;;;;;;;;;;23.10;42.20;;;;;;5070503;28;19924;-74
2020/12/19 11:45:46;;;;;;;;;;;23.10;42.20;;;;;;5070291;28;19925;-71
2020/12/19 11:48:12;;;;;;;;;;;23.10;42.20;;;;;;5070463;28;19935;-73
2020/12/19 11:50:38;;;;;;;;;;;23.00;42.20;;;;;;5070076;28;19932;-67
2020/12/19 11:53:05;;;;;;;;;;;23.10;42.20;;;;;;5069184;28;19924;-71
2020/12/19 11:55:31;;;;;;;;;;;23.00;42.50;;;;;;5070301;28;19924;-71
2020/12/19 11:57:57;;;;;;;;;;;23.00;42.40;;;;;;5070398;28;19997;-70
2020/12/19 12:00:23;;;;;;;;;;;23.00;42.40;;;;;;5070591;28;19978;-66
2020/12/19 12:02:50;;;;;;;;;;;23.10;42.40;;;;;;5069963;28;19924;-70
2020/12/19 12:05:16;;;;;;;;;;;23.10;42.20;;;;;;5070370;28;19970;-67
2020/12/19 12:07:42;;;;;;;;;;;23.00;42.30;;;;;;5070347;28;19924;-68
2020/12/19 12:10:09;;;;;;;;;;;23.00;42.20;;;;;;5070277;28;19940;-70
2020/12/19 12:12:36;;;;;;;;;;;23.10;42.20;;;;;;5068830;28;20404;-67
2020/12/19 12:15:02;;;;;;;;;;;23.10;42.20;;;;;;5070202;28;19931;-74
2020/12/19 12:17:28;;;;;;;;;;;23.10;42.20;;;;;;5069847;28;20431;-68
2020/12/19 12:19:54;;;;;;;;;;;23.10;42.30;;;;;;5069791;28;19947;-66
2020/12/19 12:22:21;;;;;;;;;;;23.10;42.30;;;;;;5069914;28;20401;-70
2020/12/19 12:24:47;;;;;;;;;;;23.10;42.30;;;;;;5070139;28;19925;-66
2020/12/19 12:27:14;;;;;;;;;;;23.20;42.30;;;;;;5068434;28;19925;-68
2020/12/19 12:29:41;;;;;;;;;;;23.20;42.20;;;;;;5069963;28;19931;-70
2020/12/19 12:32:07;;;;;;;;;;;23.20;42.40;;;;;;5069678;28;19924;-68
2020/12/19 12:34:37;;;;;;;;;;;23.20;42.50;;;;;;5070111;28;20007;-73
2020/12/19 12:37:04;;;;;;;;;;;23.20;42.40;;;;;;5069797;28;19948;-67
2020/12/19 12:39:30;;;;;;;;;;;23.20;42.40;;;;;;5069474;28;19924;-68
2020/12/19 12:42:09;;;;;;;;;;;23.20;42.40;;;;;;5070077;28;19970;-70
2020/12/19 12:44:36;;;;;;;;;;;23.20;42.50;;;;;;5069880;28;19925;-73
2020/12/19 12:47:04;;;;;;;;;;;23.30;42.50;;;;;;5068669;28;19978;-71
2020/12/19 12:49:31;;;;;;;;;;;23.30;43.10;;;;;;5069588;28;20016;-70
2020/12/19 12:51:57;;;;;;;;;;;23.30;42.50;;;;;;5069864;28;20332;-73
2020/12/19 12:54:23;;;;;;;;;;;23.20;42.50;;;;;;5069722;28;20056;-70
2020/12/19 12:56:50;;;;;;;;;;;23.30;42.50;;;;;;5057859;28;19929;-73
2020/12/19 12:59:16;;;;;;;;;;;23.20;42.50;;;;;;5057668;28;19932;-73
2020/12/19 13:01:42;;;;;;;;;;;23.20;42.50;;;;;;5081704;28;20392;-68
2020/12/19 13:04:09;;;;;;;;;;;23.30;42.70;;;;;;5084767;28;20108;-71
2020/12/19 13:06:37;;;;;;;;;;;23.30;42.70;;;;;;5072738;28;19931;-73
2020/12/19 13:09:04;;;;;;;;;;;23.30;42.60;;;;;;5084131;28;19925;-67
2020/12/19 13:11:30;;;;;;;;;;;23.30;42.70;;;;;;5073253;28;19925;-72
2020/12/19 13:13:57;;;;;;;;;;;23.30;42.90;;;;;;5073278;28;19931;-73
2020/12/19 13:16:23;;;;;;;;;;;23.30;42.90;;;;;;5080524;28;19924;-71
2020/12/19 13:18:53;;;;;;;;;;;23.30;43.30;;;;;;5077351;28;20006;-69
2020/12/19 13:21:19;;;;;;;;;;;23.20;43.00;;;;;;5071665;28;19931;-71
2020/12/19 13:23:46;;;;;;;;;;;23.30;43.00;;;;;;5071793;28;19955;-70
2020/12/19 13:26:16;;;;;;;;;;;23.20;42.80;;;;;;5071730;28;20134;-68
2020/12/19 13:28:42;;;;;;;;;;;23.30;42.90;;;;;;5072438;28;20348;-70
2020/12/19 13:31:09;;;;;;;;;;;23.30;42.80;;;;;;5071779;28;20010;-71
2020/12/19 13:33:36;;;;;;;;;;;23.30;42.70;;;;;;5081504;28;19924;-68
2020/12/19 13:36:02;;;;;;;;;;;23.40;43.10;;;;;;5092715;28;19932;-71
2020/12/19 13:38:29;;;;;;;;;;;23.40;42.60;;;;;;5092996;28;20337;-70
2020/12/19 13:40:56;;;;;;;;;;;23.50;42.70;;;;;;5093044;28;19955;-70
2020/12/19 13:43:22;;;;;;;;;;;23.50;42.70;;;;;;5092912;28;19924;-70
2020/12/19 13:45:48;;;;;;;;;;;23.50;42.70;;;;;;5093395;28;19924;-69
2020/12/19 13:48:15;;;;;;;;;;;23.40;42.70;;;;;;5072711;28;19924;-71
2020/12/19 13:50:41;;;;;;;;;;;23.50;42.70;;;;;;5071482;28;19924;-73
2020/12/19 13:53:07;;;;;;;;;;;23.40;42.60;;;;;;5071883;28;20324;-71
2020/12/19 13:55:33;;;;;;;;;;;23.40;42.70;;;;;;5072621;28;19925;-70
2020/12/19 13:58:00;;;;;;;;;;;23.40;42.70;;;;;;5072731;28;19928;-73
2020/12/19 14:00:26;;;;;;;;;;;23.40;43.10;;;;;;5072428;28;19932;-70
2020/12/19 14:02:52;;;;;;;;;;;23.30;42.90;;;;;;5069977;28;19928;-71
2020/12/19 14:05:18;;;;;;;;;;;23.30;43.20;;;;;;5072325;28;19928;-71
2020/12/19 14:07:45;;;;;;;;;;;23.40;43.10;;;;;;5079617;28;19924;-68
2020/12/19 14:10:17;;;;;;;;;;;23.40;43.80;;;;;;5092540;28;19924;-67
2020/12/19 14:13:00;;;;;;;;;;;23.50;43.90;;;;;;5085845;28;19925;-65
2020/12/19 14:15:27;;;;;;;;;;;23.50;44.30;;;;;;5071750;28;19924;-65
2020/12/19 14:17:53;;;;;;;;;;;23.50;43.40;;;;;;5072173;28;19925;-66
2020/12/19 14:20:32;;;;;;;;;;;23.50;43.60;;;;;;5071903;28;19924;-66
2020/12/19 14:22:58;;;;;;;;;;;23.60;43.60;;;;;;5070803;28;19924;-66
2020/12/19 14:25:24;;;;;;;;;;;23.60;43.20;;;;;;5072149;28;19925;-65
2020/12/19 14:27:51;;;;;;;;;;;23.60;43.90;;;;;;5071423;28;19928;-66
2020/12/19 14:30:18;;;;;;;;;;;23.60;43.50;;;;;;5070492;28;19933;-69
2020/12/19 14:32:45;;;;;;;;;;;23.60;43.10;;;;;;5071786;28;19925;-70
2020/12/19 14:35:12;;;;;;;;;;;23.60;43.00;;;;;;5071644;28;19929;-70
2020/12/19 14:37:38;;;;;;;;;;;23.70;43.10;;;;;;5070142;28;20008;-70
2020/12/19 14:40:06;;;;;;;;;;;23.60;42.90;;;;;;5085880;28;19924;-71
2020/12/19 14:42:40;;;;;;;;;;;23.60;42.90;;;;;;5091582;28;19931;-69
2020/12/19 14:45:07;;;;;;;;;;;23.60;43.20;;;;;;5083992;28;19928;-66
2020/12/19 14:47:44;;;;;;;;;;;23.60;43.40;;;;;;5071561;28;19970;-67
2020/12/19 14:50:11;;;;;;;;;;;23.70;44.20;;;;;;5070054;28;19924;-68
2020/12/19 14:52:37;;;;;;;;;;;23.70;43.90;;;;;;5070867;28;19925;-66
2020/12/19 14:55:08;;;;;;;;;;;23.70;43.40;;;;;;5071146;28;19925;-67
2020/12/19 14:57:34;;;;;;;;;;;23.60;42.80;;;;;;5071107;28;19971;-67
2020/12/19 15:00:03;;;;;;;;;;;23.50;43.40;;;;;;5070723;28;20385;-65
2020/12/19 15:02:29;;;;;;;;;;;23.10;43.60;;;;;;5070450;28;19924;-65
2020/12/19 15:04:56;;;;;;;;;;;22.80;44.30;;;;;;5070162;28;19931;-66
2020/12/19 15:07:22;;;;;;;;;;;22.80;44.20;;;;;;5076235;28;20388;-64
2020/12/19 15:09:48;;;;;;;;;;;22.70;44.70;;;;;;5091159;28;19928;-65
2020/12/19 15:12:14;;;;;;;;;;;22.70;44.20;;;;;;5091631;28;19928;-65
2020/12/19 15:14:41;;;;;;;;;;;22.70;44.80;;;;;;5050884;28;19929;-66
2020/12/19 15:17:08;;;;;;;;;;;22.70;44.60;;;;;;5051364;28;19925;-64
2020/12/19 15:19:34;;;;;;;;;;;22.50;43.90;;;;;;5069551;28;20023;-66
2020/12/19 15:22:01;;;;;;;;;;;22.40;45.70;;;;;;5070805;28;19931;-64
2020/12/19 15:24:28;;;;;;;;;;;22.40;45.10;;;;;;5070446;28;20389;-66
2020/12/19 15:26:54;;;;;;;;;;;22.40;45.00;;;;;;5069349;28;19924;-66
2020/12/19 15:29:21;;;;;;;;;;;21.90;45.50;;;;;;5070699;28;19932;-67
2020/12/19 15:31:47;;;;;;;;;;;21.70;46.10;;;;;;5069311;28;19978;-65
2020/12/19 15:34:14;;;;;;;;;;;21.80;46.20;;;;;;5069313;28;19928;-64
2020/12/19 15:36:40;;;;;;;;;;;21.90;46.00;;;;;;5070383;28;19931;-68
2020/12/19 15:39:07;;;;;;;;;;;21.90;45.60;;;;;;5068692;28;19928;-69
2020/12/19 15:41:37;;;;;;;;;;;21.90;45.60;;;;;;5070760;28;19924;-66
2020/12/19 15:44:03;;;;;;;;;;;22.00;45.50;;;;;;5070436;28;19925;-67
2020/12/19 15:46:33;;;;;;;;;;;21.90;45.30;;;;;;5070359;28;19947;-67
2020/12/19 15:48:59;;;;;;;;;;;21.90;45.20;;;;;;5069849;28;20369;-66
2020/12/19 15:51:27;;;;;;;;;;;21.80;45.80;;;;;;5070104;28;19928;-66
2020/12/19 15:53:55;;;;;;;;;;;21.60;46.00;;;;;;5069090;28;20020;-66
2020/12/19 15:56:21;;;;;;;;;;;21.30;46.80;;;;;;5070262;28;19925;-66
2020/12/19 15:58:47;;;;;;;;;;;21.20;47.50;;;;;;5068887;28;19932;-66
2020/12/19 16:01:14;;;;;;;;;;;21.20;47.60;;;;;;5070294;28;20396;-66
2020/12/19 16:03:40;;;;;;;;;;;21.40;47.30;;;;;;5070097;28;19924;-66
2020/12/19 16:06:07;;;;;;;;;;;21.40;47.00;;;;;;5068840;28;19925;-68
2020/12/19 16:08:33;;;;;;;;;;;21.30;46.90;;;;;;5069340;28;20384;-67
2020/12/19 16:11:00;;;;;;;;;;;21.30;47.00;;;;;;5069758;28;19932;-68
2020/12/19 16:13:26;;;;;;;;;;;21.20;47.20;;;;;;5072638;28;20400;-67
2020/12/19 16:15:52;;;;;;;;;;;21.30;47.20;;;;;;5069856;28;20463;-71
2020/12/19 16:18:20;;;;;;;;;;;21.30;47.40;;;;;;5068451;28;20422;-71
2020/12/19 16:20:47;;;;;;;;;;;21.30;47.30;;;;;;5067739;28;20304;-72
2020/12/19 16:23:14;;;;;;;;;;;20.90;47.80;;;;;;5064126;28;19929;-72
2020/12/19 16:25:40;;;;;;;;;;;20.90;48.40;;;;;;5069897;28;20071;-71
2020/12/19 16:28:07;;;;;;;;;;;21.00;47.90;;;;;;5069381;28;20027;-70
2020/12/19 16:30:33;;;;;;;;;;;20.90;48.60;;;;;;5073459;28;19928;-71
2020/12/19 16:33:01;;;;;;;;;;;20.80;48.50;;;;;;5073257;28;20004;-70
2020/12/19 16:35:28;;;;;;;;;;;20.90;48.50;;;;;;5073381;28;19990;-67
2020/12/19 16:37:54;;;;;;;;;;;20.90;48.30;;;;;;5073691;28;20055;-72
2020/12/19 16:40:21;;;;;;;;;;;20.90;48.20;;;;;;5072310;28;19924;-80
2020/12/19 16:42:47;;;;;;;;;;;20.90;48.60;;;;;;5073808;28;19925;-73
2020/12/19 16:45:14;;;;;;;;;;;20.80;48.50;;;;;;5073780;28;19932;-73
2020/12/19 16:47:41;;;;;;;;;;;20.70;48.90;;;;;;5073755;28;20190;-73
2020/12/19 16:50:08;;;;;;;;;;;20.70;49.20;;;;;;5072133;28;19931;-71
2020/12/19 16:52:39;;;;;;;;;;;20.80;49.00;;;;;;5075770;28;20298;-71
2020/12/19 16:55:06;;;;;;;;;;;20.70;49.00;;;;;;5073587;28;19924;-72
2020/12/19 16:57:32;;;;;;;;;;;20.60;50.40;;;;;;5073432;28;19933;-73
2020/12/19 16:59:59;;;;;;;;;;;20.60;49.70;;;;;;5073455;28;20092;-72
2020/12/19 17:02:25;;;;;;;;;;;20.50;49.70;;;;;;5073424;28;19928;-73
2020/12/19 17:04:51;;;;;;;;;;;20.50;50.00;;;;;;5071964;28;19925;-75
2020/12/19 17:07:17;;;;;;;;;;;20.40;49.60;;;;;;5078041;28;19927;-70
2020/12/19 17:09:44;;;;;;;;;;;20.50;50.00;;;;;;5093721;28;19924;-77
2020/12/19 17:12:10;;;;;;;;;;;20.50;50.00;;;;;;5093560;28;19928;-70
2020/12/19 17:14:43;;;;;;;;;;;20.70;49.40;;;;;;5066404;28;19928;-73
2020/12/19 17:17:10;;;;;;;;;;;20.80;49.50;;;;;;5091428;28;19932;-75
2020/12/19 17:19:36;;;;;;;;;;;20.80;49.10;;;;;;5071502;28;19925;-74
2020/12/19 17:22:05;;;;;;;;;;;20.80;49.00;;;;;;5073183;28;19954;-72
2020/12/19 17:24:31;;;;;;;;;;;20.80;49.10;;;;;;5077770;28;20003;-72
2020/12/19 17:26:57;;;;;;;;;;;20.60;48.80;;;;;;5076495;28;19928;-75
2020/12/19 17:29:25;;;;;;;;;;;20.50;49.50;;;;;;5072586;28;20411;-70
2020/12/19 17:31:52;;;;;;;;;;;20.50;49.70;;;;;;5076299;28;19931;-73
2020/12/19 17:34:18;;;;;;;;;;;20.30;49.80;;;;;;5073308;28;19924;-70
2020/12/19 17:36:45;;;;;;;;;;;20.20;50.20;;;;;;5071261;28;19924;-70
2020/12/19 17:39:11;;;;;;;;;;;20.20;50.60;;;;;;5076440;28;19924;-68
2020/12/19 17:41:37;;;;;;;;;;;20.30;50.60;;;;;;5072750;28;20315;-65
2020/12/19 17:44:04;;;;;;;;;;;20.30;51.10;;;;;;5073004;28;20307;-68
2020/12/19 17:46:30;;;;;;;;;;;20.40;51.20;;;;;;5064098;28;19928;-65
2020/12/19 17:48:57;;;;;;;;;;;20.60;50.70;;;;;;5067892;28;19924;-68
2020/12/19 17:51:23;;;;;;;;;;;20.80;50.40;;;;;;5065613;28;20155;-70
2020/12/19 17:53:51;;;;;;;;;;;20.70;49.80;;;;;;5066539;28;19924;-67
2020/12/19 17:56:18;;;;;;;;;;;20.70;49.40;;;;;;5064857;28;19928;-68
2020/12/19 17:58:44;;;;;;;;;;;20.60;50.90;;;;;;5051749;28;19925;-64
2020/12/19 18:01:14;;;;;;;;;;;20.60;50.50;;;;;;5052388;28;20016;-67
2020/12/19 18:03:40;;;;;;;;;;;20.60;51.10;;;;;;5068669;28;19925;-66
2020/12/19 18:06:08;;;;;;;;;;;20.60;51.10;;;;;;5071862;28;19924;-67
2020/12/19 18:08:35;;;;;;;;;;;20.60;50.30;;;;;;5071660;28;19925;-67
2020/12/19 18:11:02;;;;;;;;;;;20.50;49.40;;;;;;5072201;28;19956;-67
2020/12/19 18:13:30;;;;;;;;;;;20.20;49.80;;;;;;5071643;28;20300;-66
2020/12/19 18:15:57;;;;;;;;;;;19.90;51.20;;;;;;5071588;28;19932;-65
2020/12/19 18:18:23;;;;;;;;;;;19.60;51.60;;;;;;5071649;28;19931;-65
2020/12/19 18:20:50;;;;;;;;;;;19.40;52.10;;;;;;5072070;28;19939;-64
2020/12/19 18:23:17;;;;;;;;;;;19.10;53.30;;;;;;5070470;28;19924;-69
2020/12/19 18:25:43;;;;;;;;;;;19.20;54.10;;;;;;5071016;28;19990;-65
2020/12/19 18:28:09;;;;;;;;;;;19.10;53.60;;;;;;5070914;28;20392;-70
2020/12/19 18:30:36;;;;;;;;;;;19.20;54.30;;;;;;5071248;28;19978;-65
2020/12/19 18:33:03;;;;;;;;;;;19.20;53.90;;;;;;5071723;28;19978;-64
2020/12/19 18:35:30;;;;;;;;;;;19.10;54.10;;;;;;5074118;28;20250;-67
2020/12/19 18:37:56;;;;;;;;;;;19.00;54.00;;;;;;5070184;28;20421;-67
2020/12/19 18:40:22;;;;;;;;;;;19.10;56.20;;;;;;5069825;28;19925;-64
2020/12/19 18:42:52;;;;;;;;;;;19.20;53.60;;;;;;5069983;28;19925;-66
2020/12/19 18:45:37;;;;;;;;;;;19.20;55.30;;;;;;5071008;28;19924;-64
2020/12/19 18:48:04;;;;;;;;;;;19.10;53.60;;;;;;5070392;28;19924;-64
2020/12/19 18:50:30;;;;;;;;;;;19.00;54.00;;;;;;5070351;28;20182;-65
2020/12/19 18:52:57;;;;;;;;;;;18.90;54.00;;;;;;5070547;28;19924;-66
2020/12/19 18:55:25;;;;;;;;;;;18.80;54.60;;;;;;5071178;28;20380;-65
